Segondi, Kazakhstan
Current Conditions -  °F | °C
As of 7:00 PM on Thursday 18 Dec 2014 (Local Time) from UATE Reporting Station
Clear Clear  
Wind Chill: 28°   Ceiling: Unl
Heat Index: 36°   Visibility: 6mi
Dew Point: 30°   Wind: 11mph
Humidity: 81%   Direction: 100°E
Pressure: 30.18"   Gusts: NA
Location:  43.84°N, 51.02°E
Report Text: UATE 181500Z 10005MPS CAVOK 02/M01 Q1022 R12/0///70 NOSIG RMKQFE764/1019
Loading
Personal Weather Stations






























Interactive Weather Map New forecast layout! Learn more

10-Day Weather Forecast

Advertisements
Track Severe Weather on mobile